EZY54ED EGKK-EDDL
Flight info
| Callsign | EZY54ED |
|---|---|
| Flight time | 0h 55m |
| Altitude | 23000 |
| Route | DVR L9 KONAN/N0418F330 DCT KOK UL607 SPI Y862 KENUM M170 NVO T857 BIKMU BIKMU1A |
| Aircraft | A319/M-SDE2E3FGIJ1RWXYZ/LB1 |
Departure
| Time | 2026-05-05 12:14 |
|---|---|
| Airport | London Gatwick Airport (EGKK) |
Arrival
| Time | 2026-05-05 13:09 |
|---|---|
| Airport | Düsseldorf Airport (EDDL) |
| Time | Latitude | Longitude | Altitude | Speed | Heading |
|---|---|---|---|---|---|
| 2026-05-05 11:17 | 51.16064 | -0.18023 | 213 ft | 0 kts | 77° |
| 2026-05-05 11:17 | 51.16063 | -0.18025 | 213 ft | 0 kts | 77° |
| 2026-05-05 11:56 | 51.16060 | -0.18049 | 207 ft | 3 kts | 77° |
| 2026-05-05 11:56 | 51.16055 | -0.18083 | 214 ft | 3 kts | 77° |
| 2026-05-05 11:57 | 51.16051 | -0.18112 | 214 ft | 2 kts | 78° |
| 2026-05-05 11:57 | 51.16050 | -0.18140 | 213 ft | 3 kts | 127° |
| 2026-05-05 11:57 | 51.16064 | -0.18155 | 213 ft | 2 kts | 167° |
| 2026-05-05 11:57 | 51.16080 | -0.18161 | 213 ft | 0 kts | 167° |
| 2026-05-05 12:01 | 51.16079 | -0.18160 | 213 ft | 1 kts | 167° |
| 2026-05-05 12:01 | 51.16058 | -0.18153 | 204 ft | 5 kts | 167° |
| 2026-05-05 12:02 | 51.16018 | -0.18139 | 211 ft | 7 kts | 167° |
| 2026-05-05 12:02 | 51.15965 | -0.18121 | 204 ft | 8 kts | 168° |
| 2026-05-05 12:02 | 51.15908 | -0.18101 | 204 ft | 9 kts | 167° |
| 2026-05-05 12:02 | 51.15834 | -0.18075 | 204 ft | 11 kts | 168° |
| 2026-05-05 12:03 | 51.15754 | -0.18048 | 204 ft | 12 kts | 168° |
| 2026-05-05 12:03 | 51.15697 | -0.18039 | 204 ft | 7 kts | 200° |
| 2026-05-05 12:03 | 51.15679 | -0.18100 | 206 ft | 6 kts | 263° |
| 2026-05-05 12:03 | 51.15670 | -0.18172 | 207 ft | 7 kts | 258° |
| 2026-05-05 12:04 | 51.15658 | -0.18251 | 207 ft | 8 kts | 257° |
| 2026-05-05 12:04 | 51.15639 | -0.18345 | 208 ft | 9 kts | 232° |
| 2026-05-05 12:04 | 51.15578 | -0.18341 | 206 ft | 10 kts | 167° |
| 2026-05-05 12:04 | 51.15494 | -0.18313 | 206 ft | 15 kts | 168° |
| 2026-05-05 12:05 | 51.15380 | -0.18274 | 214 ft | 19 kts | 167° |
| 2026-05-05 12:05 | 51.15257 | -0.18230 | 204 ft | 13 kts | 167° |
| 2026-05-05 12:05 | 51.15193 | -0.18259 | 204 ft | 10 kts | 262° |
| 2026-05-05 12:05 | 51.15178 | -0.18387 | 204 ft | 15 kts | 258° |
| 2026-05-05 12:06 | 51.15151 | -0.18579 | 204 ft | 21 kts | 257° |
| 2026-05-05 12:06 | 51.15117 | -0.18828 | 203 ft | 24 kts | 257° |
| 2026-05-05 12:06 | 51.15081 | -0.19089 | 207 ft | 24 kts | 257° |
| 2026-05-05 12:06 | 51.15045 | -0.19351 | 204 ft | 24 kts | 257° |
| 2026-05-05 12:07 | 51.15009 | -0.19615 | 208 ft | 25 kts | 258° |
| 2026-05-05 12:07 | 51.14972 | -0.19882 | 213 ft | 25 kts | 258° |
| 2026-05-05 12:07 | 51.14934 | -0.20151 | 203 ft | 25 kts | 258° |
| 2026-05-05 12:07 | 51.14896 | -0.20428 | 212 ft | 26 kts | 257° |
| 2026-05-05 12:08 | 51.14858 | -0.20708 | 203 ft | 26 kts | 257° |
| 2026-05-05 12:08 | 51.14820 | -0.20987 | 204 ft | 19 kts | 258° |
| 2026-05-05 12:08 | 51.14794 | -0.21145 | 211 ft | 15 kts | 246° |
| 2026-05-05 12:08 | 51.14767 | -0.21304 | 211 ft | 14 kts | 257° |
| 2026-05-05 12:09 | 51.14723 | -0.21402 | 207 ft | 12 kts | 193° |
| 2026-05-05 12:09 | 51.14656 | -0.21344 | 208 ft | 11 kts | 141° |
| 2026-05-05 12:09 | 51.14614 | -0.21326 | 204 ft | 0 kts | 168° |
| 2026-05-05 12:12 | 51.14613 | -0.21325 | 204 ft | 1 kts | 168° |
| 2026-05-05 12:12 | 51.14577 | -0.21310 | 207 ft | 9 kts | 161° |
| 2026-05-05 12:12 | 51.14518 | -0.21214 | 205 ft | 13 kts | 103° |
| 2026-05-05 12:12 | 51.14523 | -0.21149 | 203 ft | 0 kts | 78° |
| 2026-05-05 12:13 | 51.14523 | -0.21148 | 203 ft | 1 kts | 78° |
| 2026-05-05 12:13 | 51.14541 | -0.21008 | 214 ft | 39 kts | 78° |
| 2026-05-05 12:13 | 51.14658 | -0.20163 | 212 ft | 114 kts | 77° |
| 2026-05-05 12:13 | 51.14874 | -0.18674 | 466 ft | 145 kts | 74° |
| 2026-05-05 12:14 | 51.15092 | -0.17114 | 1218 ft | 145 kts | 75° |
| 2026-05-05 12:14 | 51.15298 | -0.15532 | 1921 ft | 150 kts | 74° |
| 2026-05-05 12:14 | 51.15538 | -0.13729 | 2250 ft | 184 kts | 75° |
| 2026-05-05 12:14 | 51.15828 | -0.11542 | 2494 ft | 221 kts | 75° |
| 2026-05-05 12:15 | 51.16162 | -0.09007 | 2766 ft | 247 kts | 76° |
| 2026-05-05 12:15 | 51.16515 | -0.06307 | 3022 ft | 251 kts | 76° |
| 2026-05-05 12:15 | 51.16872 | -0.03580 | 3277 ft | 252 kts | 76° |
| 2026-05-05 12:15 | 51.17233 | -0.00802 | 3968 ft | 258 kts | 76° |
| 2026-05-05 12:16 | 51.17595 | 0.01983 | 5234 ft | 257 kts | 77° |
| 2026-05-05 12:16 | 51.17963 | 0.04792 | 6292 ft | 262 kts | 77° |
| 2026-05-05 12:16 | 51.18309 | 0.07672 | 7207 ft | 269 kts | 84° |
| 2026-05-05 12:16 | 51.18224 | 0.10693 | 8109 ft | 276 kts | 95° |
| 2026-05-05 12:17 | 51.18033 | 0.13722 | 9050 ft | 281 kts | 95° |
| 2026-05-05 12:17 | 51.17843 | 0.16765 | 9995 ft | 285 kts | 95° |
| 2026-05-05 12:17 | 51.17647 | 0.19978 | 10593 ft | 303 kts | 95° |
| 2026-05-05 12:17 | 51.17439 | 0.23426 | 11148 ft | 318 kts | 95° |
| 2026-05-05 12:18 | 51.17224 | 0.26957 | 11990 ft | 323 kts | 95° |
| 2026-05-05 12:18 | 51.17003 | 0.30541 | 12895 ft | 326 kts | 95° |
| 2026-05-05 12:18 | 51.16879 | 0.34149 | 13774 ft | 329 kts | 89° |
| 2026-05-05 12:18 | 51.16880 | 0.37714 | 14518 ft | 333 kts | 89° |
| 2026-05-05 12:19 | 51.16849 | 0.41409 | 15292 ft | 336 kts | 90° |
| 2026-05-05 12:19 | 51.16782 | 0.45098 | 16028 ft | 339 kts | 91° |
| 2026-05-05 12:19 | 51.16697 | 0.48878 | 16728 ft | 344 kts | 92° |
| 2026-05-05 12:19 | 51.16613 | 0.52712 | 17428 ft | 349 kts | 91° |
| 2026-05-05 12:20 | 51.16537 | 0.56454 | 18132 ft | 352 kts | 91° |
| 2026-05-05 12:20 | 51.16461 | 0.60405 | 18750 ft | 357 kts | 91° |
| 2026-05-05 12:20 | 51.16388 | 0.64384 | 19343 ft | 361 kts | 92° |
| 2026-05-05 12:20 | 51.16315 | 0.68406 | 19954 ft | 365 kts | 92° |
| 2026-05-05 12:21 | 51.16242 | 0.72421 | 20485 ft | 370 kts | 92° |
| 2026-05-05 12:21 | 51.16166 | 0.76529 | 21109 ft | 373 kts | 92° |
| 2026-05-05 12:21 | 51.16082 | 0.80682 | 21710 ft | 377 kts | 93° |
| 2026-05-05 12:21 | 51.15981 | 0.84852 | 22297 ft | 381 kts | 93° |
| 2026-05-05 12:22 | 51.15862 | 0.89089 | 22871 ft | 385 kts | 94° |
| 2026-05-05 12:22 | 51.15739 | 0.93212 | 23427 ft | 389 kts | 94° |
| 2026-05-05 12:22 | 51.15608 | 0.97519 | 23959 ft | 391 kts | 94° |
| 2026-05-05 12:22 | 51.15476 | 1.01840 | 24567 ft | 390 kts | 95° |
| 2026-05-05 12:23 | 51.15347 | 1.06170 | 25074 ft | 392 kts | 95° |
| 2026-05-05 12:23 | 51.15236 | 1.10293 | 25493 ft | 396 kts | 94° |
| 2026-05-05 12:23 | 51.15110 | 1.14620 | 25951 ft | 398 kts | 95° |
| 2026-05-05 12:23 | 51.14970 | 1.19037 | 26424 ft | 400 kts | 95° |
| 2026-05-05 12:24 | 51.14822 | 1.23490 | 26861 ft | 404 kts | 95° |
| 2026-05-05 12:24 | 51.14666 | 1.27965 | 27310 ft | 407 kts | 96° |
| 2026-05-05 12:24 | 51.14516 | 1.32256 | 27735 ft | 410 kts | 95° |
| 2026-05-05 12:24 | 51.14361 | 1.36807 | 28160 ft | 413 kts | 95° |
| 2026-05-05 12:25 | 51.14210 | 1.41390 | 28597 ft | 416 kts | 95° |
| 2026-05-05 12:25 | 51.14060 | 1.45996 | 29025 ft | 419 kts | 95° |
| 2026-05-05 12:25 | 51.13908 | 1.50647 | 29461 ft | 422 kts | 95° |
| 2026-05-05 12:25 | 51.13755 | 1.55265 | 29877 ft | 425 kts | 95° |
| 2026-05-05 12:26 | 51.13595 | 1.59978 | 30261 ft | 428 kts | 95° |
| 2026-05-05 12:26 | 51.13430 | 1.64720 | 30619 ft | 431 kts | 96° |
| 2026-05-05 12:26 | 51.13261 | 1.69496 | 30970 ft | 433 kts | 96° |
| 2026-05-05 12:26 | 51.13089 | 1.74302 | 31311 ft | 436 kts | 96° |
| 2026-05-05 12:27 | 51.12915 | 1.79126 | 31741 ft | 436 kts | 96° |
| 2026-05-05 12:27 | 51.12741 | 1.83952 | 32238 ft | 435 kts | 96° |
| 2026-05-05 12:27 | 51.12569 | 1.88753 | 32721 ft | 435 kts | 96° |
| 2026-05-05 12:27 | 51.12388 | 1.93577 | 32912 ft | 436 kts | 96° |
| 2026-05-05 12:28 | 51.12211 | 1.98276 | 32947 ft | 424 kts | 96° |
| 2026-05-05 12:28 | 51.12039 | 2.02880 | 32947 ft | 411 kts | 96° |
| 2026-05-05 12:28 | 51.11693 | 2.11888 | 32947 ft | 409 kts | 96° |
| 2026-05-05 12:29 | 51.11330 | 2.20949 | 32945 ft | 411 kts | 96° |
| 2026-05-05 12:29 | 51.10960 | 2.30019 | 32942 ft | 411 kts | 96° |
| 2026-05-05 12:30 | 51.10591 | 2.39028 | 32929 ft | 411 kts | 96° |
| 2026-05-05 12:30 | 51.10208 | 2.48103 | 32928 ft | 411 kts | 96° |
| 2026-05-05 12:31 | 51.09822 | 2.57177 | 32930 ft | 411 kts | 96° |
| 2026-05-05 12:31 | 51.09259 | 2.66205 | 32924 ft | 408 kts | 105° |
| 2026-05-05 12:32 | 51.07727 | 2.74804 | 32922 ft | 407 kts | 109° |
| 2026-05-05 12:32 | 51.06155 | 2.83442 | 32935 ft | 407 kts | 109° |
| 2026-05-05 12:33 | 51.04590 | 2.92058 | 32940 ft | 406 kts | 109° |
| 2026-05-05 12:33 | 51.03027 | 3.00656 | 32946 ft | 404 kts | 110° |
| 2026-05-05 12:34 | 51.01450 | 3.09223 | 32939 ft | 404 kts | 110° |
| 2026-05-05 12:34 | 50.99880 | 3.17716 | 32934 ft | 403 kts | 110° |
| 2026-05-05 12:35 | 50.98299 | 3.26255 | 32928 ft | 403 kts | 110° |
| 2026-05-05 12:35 | 50.96713 | 3.34779 | 32915 ft | 402 kts | 111° |
| 2026-05-05 12:36 | 50.95123 | 3.43283 | 32913 ft | 402 kts | 111° |
| 2026-05-05 12:36 | 50.93527 | 3.51751 | 32913 ft | 401 kts | 111° |
| 2026-05-05 12:37 | 50.91934 | 3.60162 | 32916 ft | 401 kts | 111° |
| 2026-05-05 12:37 | 50.90328 | 3.68607 | 32916 ft | 400 kts | 111° |
| 2026-05-05 12:38 | 50.88700 | 3.77030 | 32894 ft | 400 kts | 112° |
| 2026-05-05 12:38 | 50.87067 | 3.85444 | 32897 ft | 400 kts | 112° |
| 2026-05-05 12:39 | 50.85442 | 3.93808 | 32905 ft | 400 kts | 112° |
| 2026-05-05 12:39 | 50.83798 | 4.02212 | 32906 ft | 400 kts | 112° |
| 2026-05-05 12:40 | 50.82155 | 4.10615 | 32906 ft | 400 kts | 112° |
| 2026-05-05 12:40 | 50.80507 | 4.19002 | 32907 ft | 400 kts | 112° |
| 2026-05-05 12:41 | 50.78852 | 4.27379 | 32919 ft | 399 kts | 112° |
| 2026-05-05 12:41 | 50.77198 | 4.35672 | 32929 ft | 397 kts | 112° |
| 2026-05-05 12:42 | 50.75540 | 4.43986 | 32930 ft | 396 kts | 112° |
| 2026-05-05 12:42 | 50.73886 | 4.52278 | 32929 ft | 396 kts | 112° |
| 2026-05-05 12:43 | 50.72216 | 4.60554 | 32926 ft | 395 kts | 112° |
| 2026-05-05 12:43 | 50.70599 | 4.68787 | 32896 ft | 396 kts | 111° |
| 2026-05-05 12:44 | 50.69000 | 4.77092 | 32887 ft | 396 kts | 111° |
| 2026-05-05 12:44 | 50.67394 | 4.85417 | 32886 ft | 397 kts | 112° |
| 2026-05-05 12:45 | 50.65760 | 4.93745 | 32888 ft | 397 kts | 112° |
| 2026-05-05 12:45 | 50.64070 | 5.02023 | 32822 ft | 398 kts | 112° |
| 2026-05-05 12:46 | 50.63210 | 5.06170 | 32537 ft | 398 kts | 112° |
| 2026-05-05 12:46 | 50.62361 | 5.10248 | 32279 ft | 398 kts | 112° |
| 2026-05-05 12:46 | 50.61501 | 5.14380 | 31993 ft | 397 kts | 113° |
| 2026-05-05 12:46 | 50.60645 | 5.18516 | 31733 ft | 397 kts | 113° |
| 2026-05-05 12:47 | 50.59792 | 5.22636 | 31475 ft | 396 kts | 113° |
| 2026-05-05 12:47 | 50.58938 | 5.26745 | 31218 ft | 394 kts | 112° |
| 2026-05-05 12:47 | 50.58090 | 5.30833 | 30968 ft | 391 kts | 113° |
| 2026-05-05 12:47 | 50.57250 | 5.34881 | 30554 ft | 388 kts | 112° |
| 2026-05-05 12:48 | 50.56408 | 5.38903 | 30116 ft | 386 kts | 112° |
| 2026-05-05 12:48 | 50.55574 | 5.42889 | 29657 ft | 382 kts | 113° |
| 2026-05-05 12:48 | 50.54748 | 5.46845 | 29203 ft | 379 kts | 113° |
| 2026-05-05 12:48 | 50.53942 | 5.50716 | 28815 ft | 376 kts | 112° |
| 2026-05-05 12:49 | 50.53130 | 5.54595 | 28397 ft | 374 kts | 112° |
| 2026-05-05 12:49 | 50.52580 | 5.58600 | 27963 ft | 377 kts | 99° |
| 2026-05-05 12:49 | 50.52585 | 5.62728 | 27563 ft | 380 kts | 86° |
| 2026-05-05 12:49 | 50.53156 | 5.66792 | 27137 ft | 384 kts | 73° |
| 2026-05-05 12:50 | 50.54277 | 5.70611 | 26690 ft | 387 kts | 63° |
| 2026-05-05 12:50 | 50.55567 | 5.74323 | 26242 ft | 386 kts | 63° |
| 2026-05-05 12:50 | 50.56837 | 5.78033 | 25772 ft | 386 kts | 65° |
| 2026-05-05 12:50 | 50.58083 | 5.81709 | 25322 ft | 386 kts | 65° |
| 2026-05-05 12:51 | 50.59338 | 5.85443 | 24823 ft | 387 kts | 65° |
| 2026-05-05 12:51 | 50.60593 | 5.89194 | 24345 ft | 388 kts | 65° |
| 2026-05-05 12:51 | 50.61849 | 5.92959 | 23846 ft | 389 kts | 65° |
| 2026-05-05 12:51 | 50.63114 | 5.96737 | 23330 ft | 391 kts | 64° |
| 2026-05-05 12:52 | 50.64383 | 6.00512 | 22912 ft | 388 kts | 64° |
| 2026-05-05 12:52 | 50.65642 | 6.04264 | 22372 ft | 387 kts | 64° |
| 2026-05-05 12:52 | 50.66887 | 6.07978 | 22043 ft | 380 kts | 64° |
| 2026-05-05 12:52 | 50.68122 | 6.11660 | 21522 ft | 380 kts | 64° |
| 2026-05-05 12:53 | 50.69594 | 6.15040 | 21020 ft | 379 kts | 48° |
| 2026-05-05 12:53 | 50.71640 | 6.17634 | 20432 ft | 378 kts | 34° |
| 2026-05-05 12:53 | 50.73845 | 6.19866 | 19837 ft | 375 kts | 35° |
| 2026-05-05 12:53 | 50.75896 | 6.22366 | 19285 ft | 370 kts | 40° |
| 2026-05-05 12:54 | 50.79842 | 6.27398 | 18399 ft | 357 kts | 40° |
| 2026-05-05 12:54 | 50.81759 | 6.29852 | 17951 ft | 351 kts | 40° |
| 2026-05-05 12:54 | 50.83640 | 6.32263 | 17469 ft | 346 kts | 40° |
| 2026-05-05 12:55 | 50.85497 | 6.34644 | 16995 ft | 341 kts | 40° |
| 2026-05-05 12:55 | 50.87324 | 6.36991 | 16532 ft | 337 kts | 40° |
| 2026-05-05 12:55 | 50.89132 | 6.39320 | 16069 ft | 333 kts | 40° |
| 2026-05-05 12:55 | 50.90892 | 6.41594 | 15619 ft | 330 kts | 40° |
| 2026-05-05 12:56 | 50.92661 | 6.43882 | 15172 ft | 327 kts | 40° |
| 2026-05-05 12:56 | 50.94416 | 6.46147 | 14730 ft | 324 kts | 40° |
| 2026-05-05 12:56 | 50.96160 | 6.48398 | 14294 ft | 323 kts | 40° |
| 2026-05-05 12:56 | 50.97899 | 6.50647 | 13869 ft | 322 kts | 40° |
| 2026-05-05 12:57 | 50.99626 | 6.52882 | 13414 ft | 318 kts | 40° |
| 2026-05-05 12:57 | 51.01326 | 6.55104 | 12937 ft | 315 kts | 42° |
| 2026-05-05 12:57 | 51.02953 | 6.57412 | 12452 ft | 312 kts | 43° |
| 2026-05-05 12:57 | 51.04552 | 6.59714 | 11987 ft | 310 kts | 43° |
| 2026-05-05 12:58 | 51.06128 | 6.61981 | 11543 ft | 310 kts | 43° |
| 2026-05-05 12:58 | 51.07729 | 6.64289 | 11096 ft | 311 kts | 43° |
| 2026-05-05 12:58 | 51.09343 | 6.66605 | 10652 ft | 314 kts | 42° |
| 2026-05-05 12:58 | 51.11220 | 6.68363 | 10218 ft | 317 kts | 18° |
| 2026-05-05 12:59 | 51.13401 | 6.68798 | 9783 ft | 318 kts | 358° |
| 2026-05-05 12:59 | 51.15602 | 6.68609 | 9314 ft | 317 kts | 355° |
| 2026-05-05 12:59 | 51.17796 | 6.68304 | 8838 ft | 316 kts | 349° |
| 2026-05-05 13:00 | 51.21264 | 6.64551 | 7909 ft | 302 kts | 298° |
| 2026-05-05 13:00 | 51.21893 | 6.61445 | 7453 ft | 291 kts | 271° |
| 2026-05-05 13:01 | 51.20710 | 6.52357 | 6117 ft | 272 kts | 253° |
| 2026-05-05 13:01 | 51.20227 | 6.49511 | 5662 ft | 267 kts | 253° |
| 2026-05-05 13:01 | 51.19748 | 6.46716 | 5455 ft | 253 kts | 253° |
| 2026-05-05 13:01 | 51.19107 | 6.44239 | 5326 ft | 234 kts | 237° |
| 2026-05-05 13:02 | 51.18223 | 6.42162 | 5197 ft | 219 kts | 232° |
| 2026-05-05 13:02 | 51.17125 | 6.40589 | 4940 ft | 210 kts | 206° |
| 2026-05-05 13:02 | 51.15735 | 6.39991 | 4729 ft | 209 kts | 180° |
| 2026-05-05 13:02 | 51.14332 | 6.40500 | 4583 ft | 209 kts | 149° |
| 2026-05-05 13:03 | 51.13403 | 6.42242 | 4425 ft | 211 kts | 110° |
| 2026-05-05 13:03 | 51.13379 | 6.44534 | 4283 ft | 210 kts | 70° |
| 2026-05-05 13:03 | 51.14142 | 6.46487 | 4078 ft | 209 kts | 51° |
| 2026-05-05 13:03 | 51.15009 | 6.48259 | 3993 ft | 201 kts | 52° |
| 2026-05-05 13:04 | 51.15853 | 6.49990 | 3940 ft | 196 kts | 51° |
| 2026-05-05 13:04 | 51.16687 | 6.51700 | 3761 ft | 195 kts | 51° |
| 2026-05-05 13:04 | 51.17515 | 6.53400 | 3524 ft | 194 kts | 51° |
| 2026-05-05 13:04 | 51.18338 | 6.55096 | 3293 ft | 193 kts | 51° |
| 2026-05-05 13:05 | 51.19141 | 6.56776 | 3104 ft | 188 kts | 51° |
| 2026-05-05 13:05 | 51.19939 | 6.58438 | 2818 ft | 187 kts | 51° |
| 2026-05-05 13:05 | 51.20720 | 6.60064 | 2576 ft | 184 kts | 51° |
| 2026-05-05 13:05 | 51.21484 | 6.61658 | 2333 ft | 175 kts | 50° |
| 2026-05-05 13:06 | 51.22188 | 6.63127 | 2102 ft | 162 kts | 50° |
| 2026-05-05 13:06 | 51.22854 | 6.64520 | 1884 ft | 154 kts | 50° |
| 2026-05-05 13:06 | 51.23489 | 6.65843 | 1667 ft | 147 kts | 49° |
| 2026-05-05 13:06 | 51.24090 | 6.67097 | 1466 ft | 139 kts | 49° |
| 2026-05-05 13:07 | 51.24662 | 6.68291 | 1295 ft | 133 kts | 49° |
| 2026-05-05 13:07 | 51.25219 | 6.69454 | 1126 ft | 132 kts | 47° |
| 2026-05-05 13:07 | 51.25762 | 6.70592 | 950 ft | 129 kts | 48° |
| 2026-05-05 13:07 | 51.26319 | 6.71756 | 756 ft | 130 kts | 49° |
| 2026-05-05 13:08 | 51.26863 | 6.72893 | 587 ft | 130 kts | 47° |
| 2026-05-05 13:08 | 51.27387 | 6.74074 | 467 ft | 133 kts | 51° |
| 2026-05-05 13:08 | 51.27941 | 6.75220 | 239 ft | 131 kts | 46° |
| 2026-05-05 13:08 | 51.28493 | 6.76307 | 127 ft | 114 kts | 53° |
| 2026-05-05 13:09 | 51.28869 | 6.77103 | 128 ft | 66 kts | 52° |
| 2026-05-05 13:09 | 51.29116 | 6.77625 | 130 ft | 54 kts | 52° |
| 2026-05-05 13:09 | 51.29295 | 6.78023 | 138 ft | 34 kts | 71° |
| 2026-05-05 13:09 | 51.29231 | 6.78204 | 137 ft | 11 kts | 159° |
| 2026-05-05 13:10 | 51.29214 | 6.78209 | 137 ft | 1 kts | 172° |
| 2026-05-05 13:10 | 51.29208 | 6.78211 | 137 ft | 1 kts | 172° |
| 2026-05-05 13:10 | 51.29196 | 6.78214 | 136 ft | 0 kts | 171° |
| 2026-05-05 13:12 | 51.29193 | 6.78214 | 136 ft | 2 kts | 174° |
| 2026-05-05 13:12 | 51.29161 | 6.78186 | 135 ft | 8 kts | 229° |
| 2026-05-05 13:13 | 51.29118 | 6.78094 | 133 ft | 13 kts | 233° |
| 2026-05-05 13:13 | 51.29058 | 6.77970 | 128 ft | 15 kts | 232° |
| 2026-05-05 13:13 | 51.28991 | 6.77829 | 130 ft | 16 kts | 234° |
| 2026-05-05 13:13 | 51.28921 | 6.77680 | 125 ft | 17 kts | 231° |
| 2026-05-05 13:14 | 51.28843 | 6.77527 | 127 ft | 18 kts | 230° |
| 2026-05-05 13:14 | 51.28760 | 6.77372 | 130 ft | 19 kts | 229° |
| 2026-05-05 13:14 | 51.28690 | 6.77197 | 128 ft | 19 kts | 232° |
| 2026-05-05 13:14 | 51.28608 | 6.77028 | 126 ft | 20 kts | 232° |
| 2026-05-05 13:15 | 51.28527 | 6.76855 | 128 ft | 19 kts | 233° |
| 2026-05-05 13:15 | 51.28451 | 6.76695 | 126 ft | 17 kts | 234° |
| 2026-05-05 13:15 | 51.28384 | 6.76553 | 125 ft | 15 kts | 233° |
| 2026-05-05 13:15 | 51.28327 | 6.76438 | 126 ft | 12 kts | 232° |
| 2026-05-05 13:16 | 51.28287 | 6.76351 | 125 ft | 9 kts | 233° |
| 2026-05-05 13:16 | 51.28248 | 6.76269 | 127 ft | 9 kts | 233° |
| 2026-05-05 13:16 | 51.28206 | 6.76183 | 129 ft | 11 kts | 232° |
| 2026-05-05 13:16 | 51.28149 | 6.76061 | 127 ft | 15 kts | 233° |
| 2026-05-05 13:17 | 51.28093 | 6.75943 | 127 ft | 12 kts | 232° |
| 2026-05-05 13:17 | 51.28047 | 6.75848 | 128 ft | 10 kts | 231° |
| 2026-05-05 13:17 | 51.28002 | 6.75824 | 129 ft | 3 kts | 186° |
| 2026-05-05 13:17 | 51.27992 | 6.75832 | 129 ft | 1 kts | 131° |
| 2026-05-05 13:18 | 51.27992 | 6.75848 | 125 ft | 3 kts | 86° |
| 2026-05-05 13:18 | 51.27995 | 6.75899 | 127 ft | 2 kts | 92° |
| 2026-05-05 13:18 | 51.27994 | 6.75906 | 127 ft | 0 kts | 92° |
| 2026-05-05 13:18 | 51.27994 | 6.75928 | 128 ft | 2 kts | 92° |
| 2026-05-05 13:19 | 51.27994 | 6.75933 | 128 ft | 0 kts | 92° |